sensor_id;sensor_type;location;lat;lon;timestamp;temperature;humidity
3408;DHT22;1717;50.240;8.406;2022-11-04T00:01:13;12.50;99.90
3408;DHT22;1717;50.240;8.406;2022-11-04T00:03:40;12.50;99.90
3408;DHT22;1717;50.240;8.406;2022-11-04T00:06:07;12.50;99.90
3408;DHT22;1717;50.240;8.406;2022-11-04T00:08:35;12.50;99.90
3408;DHT22;1717;50.240;8.406;2022-11-04T00:11:02;12.50;99.90
3408;DHT22;1717;50.240;8.406;2022-11-04T00:13:46;12.60;99.90
3408;DHT22;1717;50.240;8.406;2022-11-04T00:16:14;12.50;99.90
3408;DHT22;1717;50.240;8.406;2022-11-04T00:18:59;12.50;99.90
3408;DHT22;1717;50.240;8.406;2022-11-04T00:21:26;12.50;99.90
3408;DHT22;1717;50.240;8.406;2022-11-04T00:24:12;12.40;99.90
3408;DHT22;1717;50.240;8.406;2022-11-04T00:26:57;12.40;99.90
3408;DHT22;1717;50.240;8.406;2022-11-04T00:29:42;12.40;99.90
3408;DHT22;1717;50.240;8.406;2022-11-04T00:32:09;12.40;99.90
3408;DHT22;1717;50.240;8.406;2022-11-04T00:34:53;12.40;99.90
3408;DHT22;1717;50.240;8.406;2022-11-04T00:37:20;12.50;99.90
3408;DHT22;1717;50.240;8.406;2022-11-04T00:39:48;12.50;99.90
3408;DHT22;1717;50.240;8.406;2022-11-04T00:42:14;12.50;99.90
3408;DHT22;1717;50.240;8.406;2022-11-04T00:44:41;12.50;99.90
3408;DHT22;1717;50.240;8.406;2022-11-04T00:47:08;12.50;99.90
3408;DHT22;1717;50.240;8.406;2022-11-04T00:49:35;12.50;99.90
3408;DHT22;1717;50.240;8.406;2022-11-04T00:52:02;12.50;99.90
3408;DHT22;1717;50.240;8.406;2022-11-04T00:54:28;12.60;99.90
3408;DHT22;1717;50.240;8.406;2022-11-04T00:56:57;12.50;99.90
3408;DHT22;1717;50.240;8.406;2022-11-04T00:59:23;12.50;99.90
3408;DHT22;1717;50.240;8.406;2022-11-04T01:01:50;12.60;99.90
3408;DHT22;1717;50.240;8.406;2022-11-04T01:04:17;12.60;99.90
3408;DHT22;1717;50.240;8.406;2022-11-04T01:06:44;12.60;99.90
3408;DHT22;1717;50.240;8.406;2022-11-04T01:09:11;12.60;99.90
3408;DHT22;1717;50.240;8.406;2022-11-04T01:11:38;12.60;99.90
3408;DHT22;1717;50.240;8.406;2022-11-04T01:14:06;12.60;99.90
3408;DHT22;1717;50.240;8.406;2022-11-04T01:16:33;12.60;99.90
3408;DHT22;1717;50.240;8.406;2022-11-04T01:19:00;12.60;99.90
3408;DHT22;1717;50.240;8.406;2022-11-04T01:21:27;12.60;99.90
3408;DHT22;1717;50.240;8.406;2022-11-04T01:23:54;12.60;99.90
3408;DHT22;1717;50.240;8.406;2022-11-04T01:26:22;12.60;99.90
3408;DHT22;1717;50.240;8.406;2022-11-04T01:28:51;12.60;99.90
3408;DHT22;1717;50.240;8.406;2022-11-04T01:31:22;12.60;99.90
3408;DHT22;1717;50.240;8.406;2022-11-04T01:33:50;12.60;99.90
3408;DHT22;1717;50.240;8.406;2022-11-04T01:36:18;12.60;99.90
3408;DHT22;1717;50.240;8.406;2022-11-04T01:38:45;12.60;99.90
3408;DHT22;1717;50.240;8.406;2022-11-04T01:41:17;12.60;99.90
3408;DHT22;1717;50.240;8.406;2022-11-04T01:43:48;12.50;99.90
3408;DHT22;1717;50.240;8.406;2022-11-04T01:49:23;12.60;99.90
3408;DHT22;1717;50.240;8.406;2022-11-04T01:51:55;12.50;99.90
3408;DHT22;1717;50.240;8.406;2022-11-04T01:54:25;12.50;99.90
3408;DHT22;1717;50.240;8.406;2022-11-04T01:56:53;12.60;99.90
3408;DHT22;1717;50.240;8.406;2022-11-04T01:59:24;12.60;99.90
3408;DHT22;1717;50.240;8.406;2022-11-04T02:01:52;12.60;99.90
3408;DHT22;1717;50.240;8.406;2022-11-04T02:04:20;12.50;99.90
3408;DHT22;1717;50.240;8.406;2022-11-04T02:06:56;12.50;99.90
3408;DHT22;1717;50.240;8.406;2022-11-04T02:09:25;12.60;99.90
3408;DHT22;1717;50.240;8.406;2022-11-04T02:11:52;12.50;99.90
3408;DHT22;1717;50.240;8.406;2022-11-04T02:14:38;12.50;99.90
3408;DHT22;1717;50.240;8.406;2022-11-04T02:17:14;12.50;99.90
3408;DHT22;1717;50.240;8.406;2022-11-04T02:20:21;12.50;99.90
3408;DHT22;1717;50.240;8.406;2022-11-04T02:23:13;12.50;99.90
3408;DHT22;1717;50.240;8.406;2022-11-04T02:25:57;12.40;99.90
3408;DHT22;1717;50.240;8.406;2022-11-04T02:28:49;12.40;99.90
3408;DHT22;1717;50.240;8.406;2022-11-04T02:31:23;12.40;99.90
3408;DHT22;1717;50.240;8.406;2022-11-04T02:33:58;12.30;99.90
3408;DHT22;1717;50.240;8.406;2022-11-04T02:36:34;12.30;99.90
3408;DHT22;1717;50.240;8.406;2022-11-04T02:39:10;12.20;99.90
3408;DHT22;1717;50.240;8.406;2022-11-04T02:41:43;12.20;99.90
3408;DHT22;1717;50.240;8.406;2022-11-04T02:44:16;12.10;99.90
3408;DHT22;1717;50.240;8.406;2022-11-04T02:46:49;12.10;99.90
3408;DHT22;1717;50.240;8.406;2022-11-04T02:49:21;12.10;99.90
3408;DHT22;1717;50.240;8.406;2022-11-04T02:51:51;12.10;99.90
3408;DHT22;1717;50.240;8.406;2022-11-04T02:54:25;12.00;99.90
3408;DHT22;1717;50.240;8.406;2022-11-04T02:56:55;12.10;99.90
3408;DHT22;1717;50.240;8.406;2022-11-04T02:59:30;12.00;99.90
3408;DHT22;1717;50.240;8.406;2022-11-04T03:02:01;12.00;99.90
3408;DHT22;1717;50.240;8.406;2022-11-04T03:04:32;11.90;99.90
3408;DHT22;1717;50.240;8.406;2022-11-04T03:07:00;11.90;99.90
3408;DHT22;1717;50.240;8.406;2022-11-04T03:09:28;11.90;99.90
3408;DHT22;1717;50.240;8.406;2022-11-04T03:11:59;11.80;99.90
3408;DHT22;1717;50.240;8.406;2022-11-04T03:14:31;11.80;99.90
3408;DHT22;1717;50.240;8.406;2022-11-04T03:17:03;11.80;99.90
3408;DHT22;1717;50.240;8.406;2022-11-04T03:19:38;11.80;99.90
3408;DHT22;1717;50.240;8.406;2022-11-04T03:22:10;11.70;99.90
3408;DHT22;1717;50.240;8.406;2022-11-04T03:24:38;11.70;99.90
3408;DHT22;1717;50.240;8.406;2022-11-04T03:27:11;11.70;99.90
3408;DHT22;1717;50.240;8.406;2022-11-04T03:29:45;11.70;99.90
3408;DHT22;1717;50.240;8.406;2022-11-04T03:32:21;11.70;99.90
3408;DHT22;1717;50.240;8.406;2022-11-04T03:34:50;11.60;99.90
3408;DHT22;1717;50.240;8.406;2022-11-04T03:37:17;11.60;99.90
3408;DHT22;1717;50.240;8.406;2022-11-04T03:39:44;11.60;99.90
3408;DHT22;1717;50.240;8.406;2022-11-04T03:42:13;11.60;99.90
3408;DHT22;1717;50.240;8.406;2022-11-04T03:44:48;11.60;99.90
3408;DHT22;1717;50.240;8.406;2022-11-04T03:47:18;11.60;99.90
3408;DHT22;1717;50.240;8.406;2022-11-04T03:49:46;11.50;99.90
3408;DHT22;1717;50.240;8.406;2022-11-04T03:52:14;11.50;99.90
3408;DHT22;1717;50.240;8.406;2022-11-04T03:54:42;11.60;99.90
3408;DHT22;1717;50.240;8.406;2022-11-04T03:57:24;11.50;99.90
3408;DHT22;1717;50.240;8.406;2022-11-04T04:00:06;11.50;99.90
3408;DHT22;1717;50.240;8.406;2022-11-04T04:02:54;11.50;99.90
3408;DHT22;1717;50.240;8.406;2022-11-04T04:05:26;11.50;99.90
3408;DHT22;1717;50.240;8.406;2022-11-04T04:08:00;11.50;99.90
3408;DHT22;1717;50.240;8.406;2022-11-04T04:10:32;11.50;99.90
3408;DHT22;1717;50.240;8.406;2022-11-04T04:13:14;11.50;99.90
3408;DHT22;1717;50.240;8.406;2022-11-04T04:15:44;11.50;99.90
3408;DHT22;1717;50.240;8.406;2022-11-04T04:18:15;11.40;99.90
3408;DHT22;1717;50.240;8.406;2022-11-04T04:20:43;11.40;99.90
3408;DHT22;1717;50.240;8.406;2022-11-04T04:23:16;11.30;99.90
3408;DHT22;1717;50.240;8.406;2022-11-04T04:26:04;11.20;99.90
3408;DHT22;1717;50.240;8.406;2022-11-04T04:28:50;11.10;99.90
3408;DHT22;1717;50.240;8.406;2022-11-04T04:31:19;11.10;99.90
3408;DHT22;1717;50.240;8.406;2022-11-04T04:34:02;11.00;99.90
3408;DHT22;1717;50.240;8.406;2022-11-04T04:36:30;11.00;99.90
3408;DHT22;1717;50.240;8.406;2022-11-04T04:39:02;11.00;99.90
3408;DHT22;1717;50.240;8.406;2022-11-04T04:41:47;10.90;99.90
3408;DHT22;1717;50.240;8.406;2022-11-04T04:44:32;10.90;99.90
3408;DHT22;1717;50.240;8.406;2022-11-04T04:47:20;10.90;99.90
3408;DHT22;1717;50.240;8.406;2022-11-04T04:49:53;10.70;99.90
3408;DHT22;1717;50.240;8.406;2022-11-04T04:52:21;10.90;99.90
3408;DHT22;1717;50.240;8.406;2022-11-04T04:54:48;10.90;99.90
3408;DHT22;1717;50.240;8.406;2022-11-04T04:57:15;10.80;99.90
3408;DHT22;1717;50.240;8.406;2022-11-04T04:59:42;10.70;99.90
3408;DHT22;1717;50.240;8.406;2022-11-04T05:02:09;10.80;99.90
3408;DHT22;1717;50.240;8.406;2022-11-04T05:04:36;10.80;99.90
3408;DHT22;1717;50.240;8.406;2022-11-04T05:07:04;10.90;99.90
3408;DHT22;1717;50.240;8.406;2022-11-04T05:09:32;10.90;99.90
3408;DHT22;1717;50.240;8.406;2022-11-04T05:11:59;10.90;99.90
3408;DHT22;1717;50.240;8.406;2022-11-04T05:14:26;11.00;99.90
3408;DHT22;1717;50.240;8.406;2022-11-04T05:16:53;11.00;99.90
3408;DHT22;1717;50.240;8.406;2022-11-04T05:19:19;11.00;99.90
3408;DHT22;1717;50.240;8.406;2022-11-04T05:21:46;11.00;99.90
3408;DHT22;1717;50.240;8.406;2022-11-04T05:24:14;11.00;99.90
3408;DHT22;1717;50.240;8.406;2022-11-04T05:26:41;11.00;99.90
3408;DHT22;1717;50.240;8.406;2022-11-04T05:29:08;11.10;99.90
3408;DHT22;1717;50.240;8.406;2022-11-04T05:31:37;11.10;99.90
3408;DHT22;1717;50.240;8.406;2022-11-04T05:34:03;11.10;99.90
3408;DHT22;1717;50.240;8.406;2022-11-04T05:36:31;11.10;99.90
3408;DHT22;1717;50.240;8.406;2022-11-04T05:38:58;11.10;99.90
3408;DHT22;1717;50.240;8.406;2022-11-04T05:41:26;11.10;99.90
3408;DHT22;1717;50.240;8.406;2022-11-04T05:43:54;11.10;99.90
3408;DHT22;1717;50.240;8.406;2022-11-04T05:46:21;11.10;99.90
3408;DHT22;1717;50.240;8.406;2022-11-04T05:48:48;11.10;99.90
3408;DHT22;1717;50.240;8.406;2022-11-04T05:51:16;11.10;99.90
3408;DHT22;1717;50.240;8.406;2022-11-04T05:53:43;11.10;99.90
3408;DHT22;1717;50.240;8.406;2022-11-04T05:56:10;11.10;99.90
3408;DHT22;1717;50.240;8.406;2022-11-04T05:58:38;11.10;99.90
3408;DHT22;1717;50.240;8.406;2022-11-04T06:01:25;11.10;99.90
3408;DHT22;1717;50.240;8.406;2022-11-04T06:03:53;11.10;99.90
3408;DHT22;1717;50.240;8.406;2022-11-04T06:06:21;11.00;99.90
3408;DHT22;1717;50.240;8.406;2022-11-04T06:08:49;11.00;99.90
3408;DHT22;1717;50.240;8.406;2022-11-04T06:11:16;11.10;99.90
3408;DHT22;1717;50.240;8.406;2022-11-04T06:13:45;11.10;99.90
3408;DHT22;1717;50.240;8.406;2022-11-04T06:16:12;11.10;99.90
3408;DHT22;1717;50.240;8.406;2022-11-04T06:18:39;11.10;99.90
3408;DHT22;1717;50.240;8.406;2022-11-04T06:21:17;11.20;99.90
3408;DHT22;1717;50.240;8.406;2022-11-04T06:23:45;11.20;99.90
3408;DHT22;1717;50.240;8.406;2022-11-04T06:26:13;11.20;99.90
3408;DHT22;1717;50.240;8.406;2022-11-04T06:28:40;11.20;99.90
3408;DHT22;1717;50.240;8.406;2022-11-04T06:31:10;11.20;99.90
3408;DHT22;1717;50.240;8.406;2022-11-04T06:33:37;11.20;99.90
3408;DHT22;1717;50.240;8.406;2022-11-04T06:36:06;11.20;99.90
3408;DHT22;1717;50.240;8.406;2022-11-04T06:38:34;11.20;99.90
3408;DHT22;1717;50.240;8.406;2022-11-04T06:41:02;11.20;99.90
3408;DHT22;1717;50.240;8.406;2022-11-04T06:43:29;11.20;99.90
3408;DHT22;1717;50.240;8.406;2022-11-04T06:45:57;11.10;99.90
3408;DHT22;1717;50.240;8.406;2022-11-04T06:48:26;11.10;99.90
3408;DHT22;1717;50.240;8.406;2022-11-04T06:50:55;11.20;99.90
3408;DHT22;1717;50.240;8.406;2022-11-04T06:53:21;11.20;99.90
3408;DHT22;1717;50.240;8.406;2022-11-04T06:55:48;11.20;99.90
3408;DHT22;1717;50.240;8.406;2022-11-04T06:58:16;11.30;99.90
3408;DHT22;1717;50.240;8.406;2022-11-04T07:00:43;11.30;99.90
3408;DHT22;1717;50.240;8.406;2022-11-04T07:03:10;11.30;99.90
3408;DHT22;1717;50.240;8.406;2022-11-04T07:05:38;11.30;99.90
3408;DHT22;1717;50.240;8.406;2022-11-04T07:08:05;11.40;99.90
3408;DHT22;1717;50.240;8.406;2022-11-04T07:10:32;11.40;99.90
3408;DHT22;1717;50.240;8.406;2022-11-04T07:13:00;11.40;99.90
3408;DHT22;1717;50.240;8.406;2022-11-04T07:15:27;11.40;99.90
3408;DHT22;1717;50.240;8.406;2022-11-04T07:17:53;11.40;99.90
3408;DHT22;1717;50.240;8.406;2022-11-04T07:20:20;11.40;99.90
3408;DHT22;1717;50.240;8.406;2022-11-04T07:22:49;11.40;99.90
3408;DHT22;1717;50.240;8.406;2022-11-04T07:25:15;11.40;99.90
3408;DHT22;1717;50.240;8.406;2022-11-04T07:27:42;11.40;99.90
3408;DHT22;1717;50.240;8.406;2022-11-04T07:30:10;11.40;99.90
3408;DHT22;1717;50.240;8.406;2022-11-04T07:32:37;11.40;99.90
3408;DHT22;1717;50.240;8.406;2022-11-04T07:35:04;11.50;99.90
3408;DHT22;1717;50.240;8.406;2022-11-04T07:37:32;11.50;99.90
3408;DHT22;1717;50.240;8.406;2022-11-04T07:40:00;11.50;99.90
3408;DHT22;1717;50.240;8.406;2022-11-04T07:42:27;11.50;99.90
3408;DHT22;1717;50.240;8.406;2022-11-04T07:44:54;11.50;99.90
3408;DHT22;1717;50.240;8.406;2022-11-04T07:47:20;11.60;99.90
3408;DHT22;1717;50.240;8.406;2022-11-04T07:49:47;11.60;99.90
3408;DHT22;1717;50.240;8.406;2022-11-04T07:52:14;11.60;99.90
3408;DHT22;1717;50.240;8.406;2022-11-04T07:54:41;11.60;99.90
3408;DHT22;1717;50.240;8.406;2022-11-04T07:57:09;11.70;99.90
3408;DHT22;1717;50.240;8.406;2022-11-04T07:59:36;11.60;99.90
3408;DHT22;1717;50.240;8.406;2022-11-04T08:02:03;11.70;99.90
3408;DHT22;1717;50.240;8.406;2022-11-04T08:04:29;11.70;99.90
3408;DHT22;1717;50.240;8.406;2022-11-04T08:06:56;11.70;99.90
3408;DHT22;1717;50.240;8.406;2022-11-04T08:09:23;11.70;99.90
3408;DHT22;1717;50.240;8.406;2022-11-04T08:11:50;11.60;99.90
3408;DHT22;1717;50.240;8.406;2022-11-04T08:14:18;11.60;99.90
3408;DHT22;1717;50.240;8.406;2022-11-04T08:16:45;11.60;99.90
3408;DHT22;1717;50.240;8.406;2022-11-04T08:19:15;11.70;99.90
3408;DHT22;1717;50.240;8.406;2022-11-04T08:21:42;11.90;99.90
3408;DHT22;1717;50.240;8.406;2022-11-04T08:24:09;11.70;99.90
3408;DHT22;1717;50.240;8.406;2022-11-04T08:26:35;11.70;99.90
3408;DHT22;1717;50.240;8.406;2022-11-04T08:29:05;11.70;99.90
3408;DHT22;1717;50.240;8.406;2022-11-04T08:31:34;11.80;99.90
3408;DHT22;1717;50.240;8.406;2022-11-04T08:34:01;11.90;99.90
3408;DHT22;1717;50.240;8.406;2022-11-04T08:36:32;11.90;99.90
3408;DHT22;1717;50.240;8.406;2022-11-04T08:39:01;12.00;99.90
3408;DHT22;1717;50.240;8.406;2022-11-04T08:41:30;12.00;99.90
3408;DHT22;1717;50.240;8.406;2022-11-04T08:43:59;12.00;99.90
3408;DHT22;1717;50.240;8.406;2022-11-04T08:46:31;12.10;99.90
3408;DHT22;1717;50.240;8.406;2022-11-04T08:48:59;12.10;99.90
3408;DHT22;1717;50.240;8.406;2022-11-04T08:51:28;12.10;99.90
3408;DHT22;1717;50.240;8.406;2022-11-04T08:53:55;12.10;99.90
3408;DHT22;1717;50.240;8.406;2022-11-04T08:56:24;12.10;99.90
3408;DHT22;1717;50.240;8.406;2022-11-04T08:58:52;12.10;99.90
3408;DHT22;1717;50.240;8.406;2022-11-04T09:01:20;12.10;99.90
3408;DHT22;1717;50.240;8.406;2022-11-04T09:03:48;12.20;99.90
3408;DHT22;1717;50.240;8.406;2022-11-04T09:06:20;12.10;99.90
3408;DHT22;1717;50.240;8.406;2022-11-04T09:08:47;12.10;99.90
3408;DHT22;1717;50.240;8.406;2022-11-04T09:11:16;12.20;99.90
3408;DHT22;1717;50.240;8.406;2022-11-04T09:13:43;12.10;99.90
3408;DHT22;1717;50.240;8.406;2022-11-04T09:16:12;12.10;99.90
3408;DHT22;1717;50.240;8.406;2022-11-04T09:18:39;12.20;99.90
3408;DHT22;1717;50.240;8.406;2022-11-04T09:21:08;12.10;99.90
3408;DHT22;1717;50.240;8.406;2022-11-04T09:23:36;12.10;99.90
3408;DHT22;1717;50.240;8.406;2022-11-04T09:26:05;12.10;99.90
3408;DHT22;1717;50.240;8.406;2022-11-04T09:28:33;12.10;99.90
3408;DHT22;1717;50.240;8.406;2022-11-04T09:31:04;12.10;99.90
3408;DHT22;1717;50.240;8.406;2022-11-04T09:33:31;12.10;99.90
3408;DHT22;1717;50.240;8.406;2022-11-04T09:35:58;12.20;99.90
3408;DHT22;1717;50.240;8.406;2022-11-04T09:38:25;12.20;99.90
3408;DHT22;1717;50.240;8.406;2022-11-04T09:40:54;12.40;99.90
3408;DHT22;1717;50.240;8.406;2022-11-04T09:43:29;12.40;99.90
3408;DHT22;1717;50.240;8.406;2022-11-04T09:45:59;12.40;99.90
3408;DHT22;1717;50.240;8.406;2022-11-04T09:48:30;12.40;99.90
3408;DHT22;1717;50.240;8.406;2022-11-04T09:51:00;12.50;99.90
3408;DHT22;1717;50.240;8.406;2022-11-04T09:53:37;12.50;99.90
3408;DHT22;1717;50.240;8.406;2022-11-04T09:56:11;12.50;99.90
3408;DHT22;1717;50.240;8.406;2022-11-04T09:58:40;12.50;99.90
3408;DHT22;1717;50.240;8.406;2022-11-04T10:01:16;12.50;99.90
3408;DHT22;1717;50.240;8.406;2022-11-04T10:03:57;12.50;99.90
3408;DHT22;1717;50.240;8.406;2022-11-04T10:06:34;12.60;99.90
3408;DHT22;1717;50.240;8.406;2022-11-04T10:09:20;12.50;99.90
3408;DHT22;1717;50.240;8.406;2022-11-04T10:11:58;12.50;99.90
3408;DHT22;1717;50.240;8.406;2022-11-04T10:14:42;12.40;99.90
3408;DHT22;1717;50.240;8.406;2022-11-04T10:17:29;12.40;99.90
3408;DHT22;1717;50.240;8.406;2022-11-04T10:20:09;12.40;99.90
3408;DHT22;1717;50.240;8.406;2022-11-04T10:22:48;12.40;99.90
3408;DHT22;1717;50.240;8.406;2022-11-04T10:25:21;12.30;99.90
3408;DHT22;1717;50.240;8.406;2022-11-04T10:27:50;12.30;99.90
3408;DHT22;1717;50.240;8.406;2022-11-04T10:30:19;12.30;99.90
3408;DHT22;1717;50.240;8.406;2022-11-04T10:32:54;12.30;99.90
3408;DHT22;1717;50.240;8.406;2022-11-04T10:35:30;12.30;99.90
3408;DHT22;1717;50.240;8.406;2022-11-04T10:38:15;12.30;99.90
3408;DHT22;1717;50.240;8.406;2022-11-04T10:40:46;12.30;99.90
3408;DHT22;1717;50.240;8.406;2022-11-04T10:43:16;12.30;99.90
3408;DHT22;1717;50.240;8.406;2022-11-04T10:45:52;12.30;99.90
3408;DHT22;1717;50.240;8.406;2022-11-04T10:48:27;12.20;99.90
3408;DHT22;1717;50.240;8.406;2022-11-04T10:50:57;12.30;99.90
3408;DHT22;1717;50.240;8.406;2022-11-04T10:53:26;12.30;99.90
3408;DHT22;1717;50.240;8.406;2022-11-04T10:56:00;12.30;99.90
3408;DHT22;1717;50.240;8.406;2022-11-04T10:58:33;12.40;99.90
3408;DHT22;1717;50.240;8.406;2022-11-04T11:01:21;12.40;99.90
3408;DHT22;1717;50.240;8.406;2022-11-04T11:03:49;12.40;99.90
3408;DHT22;1717;50.240;8.406;2022-11-04T11:06:23;12.50;99.90
3408;DHT22;1717;50.240;8.406;2022-11-04T11:08:51;12.60;99.90
3408;DHT22;1717;50.240;8.406;2022-11-04T11:11:35;12.60;99.90
3408;DHT22;1717;50.240;8.406;2022-11-04T11:14:04;12.60;99.90
3408;DHT22;1717;50.240;8.406;2022-11-04T11:16:40;12.60;99.90
3408;DHT22;1717;50.240;8.406;2022-11-04T11:19:13;12.60;99.90
3408;DHT22;1717;50.240;8.406;2022-11-04T11:21:42;12.60;99.90
3408;DHT22;1717;50.240;8.406;2022-11-04T11:24:18;12.60;99.90
3408;DHT22;1717;50.240;8.406;2022-11-04T11:26:46;12.60;99.90
3408;DHT22;1717;50.240;8.406;2022-11-04T11:29:23;12.60;99.90
3408;DHT22;1717;50.240;8.406;2022-11-04T11:31:52;12.60;99.90
3408;DHT22;1717;50.240;8.406;2022-11-04T11:34:22;12.60;99.90
3408;DHT22;1717;50.240;8.406;2022-11-04T11:36:52;12.70;99.90
3408;DHT22;1717;50.240;8.406;2022-11-04T11:39:22;12.70;99.90
3408;DHT22;1717;50.240;8.406;2022-11-04T11:41:52;12.70;99.90
3408;DHT22;1717;50.240;8.406;2022-11-04T11:44:25;12.90;99.90
3408;DHT22;1717;50.240;8.406;2022-11-04T11:46:58;12.90;99.90
3408;DHT22;1717;50.240;8.406;2022-11-04T11:49:28;12.80;99.90
3408;DHT22;1717;50.240;8.406;2022-11-04T11:52:16;12.80;99.90
3408;DHT22;1717;50.240;8.406;2022-11-04T11:54:51;12.80;99.90
3408;DHT22;1717;50.240;8.406;2022-11-04T11:57:32;12.90;99.90
3408;DHT22;1717;50.240;8.406;2022-11-04T12:00:04;13.00;99.90
3408;DHT22;1717;50.240;8.406;2022-11-04T12:02:40;13.10;99.90
3408;DHT22;1717;50.240;8.406;2022-11-04T12:05:10;13.00;99.90
3408;DHT22;1717;50.240;8.406;2022-11-04T12:07:43;12.90;99.90
3408;DHT22;1717;50.240;8.406;2022-11-04T12:10:22;13.00;99.90
3408;DHT22;1717;50.240;8.406;2022-11-04T12:13:01;12.90;99.90
3408;DHT22;1717;50.240;8.406;2022-11-04T12:15:40;12.90;99.90
3408;DHT22;1717;50.240;8.406;2022-11-04T12:18:33;12.70;99.90
3408;DHT22;1717;50.240;8.406;2022-11-04T12:21:08;12.60;99.90
3408;DHT22;1717;50.240;8.406;2022-11-04T12:23:44;12.60;99.90
3408;DHT22;1717;50.240;8.406;2022-11-04T12:26:23;12.50;99.90
3408;DHT22;1717;50.240;8.406;2022-11-04T12:29:05;12.60;99.90
3408;DHT22;1717;50.240;8.406;2022-11-04T12:31:41;12.50;99.90
3408;DHT22;1717;50.240;8.406;2022-11-04T12:34:19;12.40;99.90
3408;DHT22;1717;50.240;8.406;2022-11-04T12:37:06;12.40;99.90
3408;DHT22;1717;50.240;8.406;2022-11-04T12:39:47;12.40;99.90
3408;DHT22;1717;50.240;8.406;2022-11-04T12:42:22;12.40;99.90
3408;DHT22;1717;50.240;8.406;2022-11-04T12:45:00;12.50;99.90
3408;DHT22;1717;50.240;8.406;2022-11-04T12:47:34;12.60;99.90
3408;DHT22;1717;50.240;8.406;2022-11-04T12:50:15;12.70;99.90
3408;DHT22;1717;50.240;8.406;2022-11-04T12:53:14;12.70;99.90
3408;DHT22;1717;50.240;8.406;2022-11-04T12:55:51;12.80;99.90
3408;DHT22;1717;50.240;8.406;2022-11-04T12:58:29;12.90;99.90
3408;DHT22;1717;50.240;8.406;2022-11-04T13:01:02;13.00;99.90
3408;DHT22;1717;50.240;8.406;2022-11-04T13:03:36;13.20;99.90
3408;DHT22;1717;50.240;8.406;2022-11-04T13:06:11;13.20;99.90
3408;DHT22;1717;50.240;8.406;2022-11-04T13:08:43;13.20;99.90
3408;DHT22;1717;50.240;8.406;2022-11-04T13:11:15;13.10;99.90
3408;DHT22;1717;50.240;8.406;2022-11-04T13:14:01;13.10;99.90
3408;DHT22;1717;50.240;8.406;2022-11-04T13:16:31;13.10;99.90
3408;DHT22;1717;50.240;8.406;2022-11-04T13:19:01;13.10;99.90
3408;DHT22;1717;50.240;8.406;2022-11-04T13:21:32;13.00;99.90
3408;DHT22;1717;50.240;8.406;2022-11-04T13:24:03;13.10;99.90
3408;DHT22;1717;50.240;8.406;2022-11-04T13:26:31;13.20;99.90
3408;DHT22;1717;50.240;8.406;2022-11-04T13:29:06;13.10;99.90
3408;DHT22;1717;50.240;8.406;2022-11-04T13:31:44;13.10;99.90
3408;DHT22;1717;50.240;8.406;2022-11-04T13:34:21;13.10;99.90
3408;DHT22;1717;50.240;8.406;2022-11-04T13:36:57;13.20;99.90
3408;DHT22;1717;50.240;8.406;2022-11-04T13:39:33;13.20;99.90
3408;DHT22;1717;50.240;8.406;2022-11-04T13:45:10;13.30;99.90
3408;DHT22;1717;50.240;8.406;2022-11-04T13:47:44;13.30;99.90
3408;DHT22;1717;50.240;8.406;2022-11-04T13:50:33;13.40;99.90
3408;DHT22;1717;50.240;8.406;2022-11-04T13:53:02;13.40;99.90
3408;DHT22;1717;50.240;8.406;2022-11-04T13:55:29;13.40;99.90
3408;DHT22;1717;50.240;8.406;2022-11-04T13:57:58;13.40;99.90
3408;DHT22;1717;50.240;8.406;2022-11-04T14:00:26;13.40;99.90
3408;DHT22;1717;50.240;8.406;2022-11-04T14:02:54;13.40;99.90
3408;DHT22;1717;50.240;8.406;2022-11-04T14:06:04;13.40;99.90
3408;DHT22;1717;50.240;8.406;2022-11-04T14:08:32;13.40;99.90
3408;DHT22;1717;50.240;8.406;2022-11-04T14:11:08;13.40;99.90
3408;DHT22;1717;50.240;8.406;2022-11-04T14:16:45;13.30;99.90
3408;DHT22;1717;50.240;8.406;2022-11-04T14:22:34;13.30;99.90
3408;DHT22;1717;50.240;8.406;2022-11-04T14:25:17;13.30;99.90
3408;DHT22;1717;50.240;8.406;2022-11-04T14:27:46;13.30;99.90
3408;DHT22;1717;50.240;8.406;2022-11-04T14:30:35;13.30;99.90
3408;DHT22;1717;50.240;8.406;2022-11-04T14:33:06;13.40;99.90
3408;DHT22;1717;50.240;8.406;2022-11-04T14:35:34;13.30;99.90
3408;DHT22;1717;50.240;8.406;2022-11-04T14:38:12;13.30;99.90
3408;DHT22;1717;50.240;8.406;2022-11-04T14:40:46;13.30;99.90
3408;DHT22;1717;50.240;8.406;2022-11-04T14:43:22;13.30;99.90
3408;DHT22;1717;50.240;8.406;2022-11-04T14:45:53;13.30;99.90
3408;DHT22;1717;50.240;8.406;2022-11-04T14:48:21;13.30;99.90
3408;DHT22;1717;50.240;8.406;2022-11-04T14:50:51;13.30;99.90
3408;DHT22;1717;50.240;8.406;2022-11-04T14:53:24;13.30;99.90
3408;DHT22;1717;50.240;8.406;2022-11-04T14:56:05;13.30;99.90
3408;DHT22;1717;50.240;8.406;2022-11-04T14:58:32;13.30;99.90
3408;DHT22;1717;50.240;8.406;2022-11-04T15:01:00;13.30;99.90
3408;DHT22;1717;50.240;8.406;2022-11-04T15:03:32;13.30;99.90
3408;DHT22;1717;50.240;8.406;2022-11-04T15:06:02;13.20;99.90
3408;DHT22;1717;50.240;8.406;2022-11-04T15:08:32;13.20;99.90
3408;DHT22;1717;50.240;8.406;2022-11-04T15:11:06;13.00;99.90
3408;DHT22;1717;50.240;8.406;2022-11-04T15:13:34;12.90;99.90
3408;DHT22;1717;50.240;8.406;2022-11-04T15:16:06;12.70;99.90
3408;DHT22;1717;50.240;8.406;2022-11-04T15:18:36;12.70;99.90
3408;DHT22;1717;50.240;8.406;2022-11-04T15:21:05;12.60;99.90
3408;DHT22;1717;50.240;8.406;2022-11-04T15:23:36;12.50;99.90
3408;DHT22;1717;50.240;8.406;2022-11-04T15:26:05;12.30;99.90
3408;DHT22;1717;50.240;8.406;2022-11-04T15:28:34;12.20;99.90
3408;DHT22;1717;50.240;8.406;2022-11-04T15:31:13;12.10;99.90
3408;DHT22;1717;50.240;8.406;2022-11-04T15:33:43;12.20;99.90
3408;DHT22;1717;50.240;8.406;2022-11-04T15:36:14;12.10;99.90
3408;DHT22;1717;50.240;8.406;2022-11-04T15:38:45;12.00;99.90
3408;DHT22;1717;50.240;8.406;2022-11-04T15:41:13;11.90;99.90
3408;DHT22;1717;50.240;8.406;2022-11-04T15:43:59;11.90;99.90
3408;DHT22;1717;50.240;8.406;2022-11-04T15:46:26;11.90;99.90
3408;DHT22;1717;50.240;8.406;2022-11-04T15:49:02;11.70;99.90
3408;DHT22;1717;50.240;8.406;2022-11-04T15:51:34;11.70;99.90
3408;DHT22;1717;50.240;8.406;2022-11-04T15:54:05;11.60;99.90
3408;DHT22;1717;50.240;8.406;2022-11-04T15:56:38;11.60;99.90
3408;DHT22;1717;50.240;8.406;2022-11-04T15:59:08;11.60;99.90
3408;DHT22;1717;50.240;8.406;2022-11-04T16:01:43;11.50;99.90
3408;DHT22;1717;50.240;8.406;2022-11-04T16:04:10;11.50;99.90
3408;DHT22;1717;50.240;8.406;2022-11-04T16:06:38;11.40;99.90
3408;DHT22;1717;50.240;8.406;2022-11-04T16:09:18;11.30;99.90
3408;DHT22;1717;50.240;8.406;2022-11-04T16:12:11;11.30;99.90
3408;DHT22;1717;50.240;8.406;2022-11-04T16:14:46;11.30;99.90
3408;DHT22;1717;50.240;8.406;2022-11-04T16:17:13;11.20;99.90
3408;DHT22;1717;50.240;8.406;2022-11-04T16:19:44;11.20;99.90
3408;DHT22;1717;50.240;8.406;2022-11-04T16:22:17;11.10;99.90
3408;DHT22;1717;50.240;8.406;2022-11-04T16:24:47;11.10;99.90
3408;DHT22;1717;50.240;8.406;2022-11-04T16:27:17;11.00;99.90
3408;DHT22;1717;50.240;8.406;2022-11-04T16:29:51;11.00;99.90
3408;DHT22;1717;50.240;8.406;2022-11-04T16:32:24;10.90;99.90
3408;DHT22;1717;50.240;8.406;2022-11-04T16:34:52;11.00;99.90
3408;DHT22;1717;50.240;8.406;2022-11-04T16:37:19;11.10;99.90
3408;DHT22;1717;50.240;8.406;2022-11-04T16:39:47;11.00;99.90
3408;DHT22;1717;50.240;8.406;2022-11-04T16:42:15;11.00;99.90
3408;DHT22;1717;50.240;8.406;2022-11-04T16:44:45;11.00;99.90